Time;durP1;ratioP1;P1;durP2;ratioP2;P2;SDS_P1;SDS_P2;PMS_P1;PMS_P2;Temp;Humidity;BMP_temperature;BMP_pressure;BME280_temperature;BME280_humidity;BME280_pressure;Samples;Min_cycle;Max_cycle;Signal;HPM_P1;HPM_P2
2023/01/25 00:01:46;;;;;;;18.98;11.27;;;16.20;45.30;;;;;;5033698;28;20275;-64
2023/01/25 00:04:13;;;;;;;17.17;10.82;;;16.20;45.30;;;;;;5033486;28;20208;-64
2023/01/25 00:06:41;;;;;;;18.85;12.32;;;16.20;45.50;;;;;;5058394;22;20231;-63
2023/01/25 00:09:10;;;;;;;19.83;11.50;;;16.20;45.40;;;;;;5033193;28;20192;-64
2023/01/25 00:11:37;;;;;;;18.02;11.23;;;16.20;45.40;;;;;;5032105;28;20625;-64
2023/01/25 00:14:05;;;;;;;18.02;11.60;;;16.10;45.30;;;;;;5031838;28;20215;-63
2023/01/25 00:16:32;;;;;;;16.90;11.27;;;16.20;45.40;;;;;;5032910;28;20224;-64
2023/01/25 00:18:59;;;;;;;16.25;10.30;;;16.10;45.40;;;;;;5031670;28;20227;-64
2023/01/25 00:21:27;;;;;;;17.15;11.45;;;16.10;45.50;;;;;;5032970;28;20188;-65
2023/01/25 00:23:56;;;;;;;16.35;10.60;;;16.10;45.60;;;;;;5033047;28;20214;-64
2023/01/25 00:26:23;;;;;;;16.63;10.85;;;16.10;45.60;;;;;;5032254;28;20192;-63
2023/01/25 00:28:50;;;;;;;16.75;10.77;;;16.00;45.60;;;;;;5032818;28;20222;-63
2023/01/25 00:31:22;;;;;;;14.52;10.70;;;16.10;45.80;;;;;;5031614;28;20196;-66
2023/01/25 00:37:12;;;;;;;15.35;10.02;;;16.00;45.70;;;;;;5031599;28;20206;-63
2023/01/25 00:39:42;;;;;;;13.27;9.57;;;16.00;45.80;;;;;;5031668;28;20227;-63
2023/01/25 00:42:12;;;;;;;17.73;11.00;;;15.90;45.70;;;;;;5031682;28;20214;-63
2023/01/25 00:44:39;;;;;;;15.05;10.90;;;16.00;45.80;;;;;;5031497;28;20406;-63
2023/01/25 00:47:09;;;;;;;15.35;9.90;;;15.90;45.80;;;;;;5031645;28;20196;-63
2023/01/25 00:49:36;;;;;;;14.27;10.00;;;15.90;45.70;;;;;;5031427;28;20662;-64
2023/01/25 00:52:04;;;;;;;16.85;10.50;;;15.90;45.80;;;;;;5032755;28;20188;-63
2023/01/25 01:01:48;;;;;;;16.40;10.95;;;15.90;45.80;;;;;;5032299;28;20176;-63
2023/01/25 01:04:17;;;;;;;13.13;10.02;;;15.90;45.90;;;;;;5032638;28;20633;-62
2023/01/25 01:06:44;;;;;;;17.00;10.45;;;15.90;45.80;;;;;;5033804;28;20670;-63
2023/01/25 01:16:15;;;;;;;12.75;9.25;;;15.80;45.90;;;;;;5036780;28;20180;-63
2023/01/25 01:18:44;;;;;;;14.82;9.75;;;15.80;46.00;;;;;;5035733;28;20224;-62
2023/01/25 01:21:12;;;;;;;13.63;9.38;;;15.80;46.00;;;;;;5036648;28;20200;-62
2023/01/25 01:23:39;;;;;;;11.68;8.98;;;15.80;46.00;;;;;;5036526;28;20200;-63
2023/01/25 01:26:07;;;;;;;14.25;10.13;;;15.80;46.00;;;;;;5035754;28;20206;-62
2023/01/25 01:28:34;;;;;;;15.65;10.25;;;15.80;46.00;;;;;;5035263;28;20200;-62
2023/01/25 01:31:02;;;;;;;11.90;9.75;;;15.80;46.00;;;;;;5036141;28;20203;-62
2023/01/25 01:33:33;;;;;;;13.40;9.77;;;15.70;45.80;;;;;;5034911;28;20769;-63
2023/01/25 01:36:06;;;;;;;13.45;9.95;;;15.70;45.90;;;;;;5036074;28;20196;-62
2023/01/25 01:38:33;;;;;;;13.00;9.75;;;15.70;45.90;;;;;;5034904;28;20254;-63
2023/01/25 01:41:02;;;;;;;13.50;9.23;;;15.70;45.90;;;;;;5034517;28;20216;-63
2023/01/25 01:43:30;;;;;;;13.40;9.85;;;15.70;45.90;;;;;;5035862;28;20216;-63
2023/01/25 01:46:00;;;;;;;13.70;9.57;;;15.70;45.90;;;;;;5034599;28;20207;-63
2023/01/25 01:48:36;;;;;;;13.00;9.93;;;15.70;46.00;;;;;;5034629;28;20195;-62
2023/01/25 01:51:08;;;;;;;13.70;9.45;;;15.70;45.90;;;;;;5034654;28;20263;-63
2023/01/25 01:53:36;;;;;;;12.93;9.40;;;15.70;46.00;;;;;;5034510;28;20212;-63
2023/01/25 01:56:04;;;;;;;11.80;8.95;;;15.60;45.90;;;;;;5034773;28;20192;-62
2023/01/25 01:58:31;;;;;;;11.25;8.98;;;15.60;45.90;;;;;;5034275;28;20220;-62
2023/01/25 02:00:58;;;;;;;11.93;9.13;;;15.60;45.80;;;;;;5034280;28;20234;-63
2023/01/25 02:03:25;;;;;;;12.48;8.73;;;15.60;45.90;;;;;;5034162;28;20312;-63
2023/01/25 02:05:56;;;;;;;11.07;9.05;;;15.60;45.90;;;;;;5034043;28;20200;-62
2023/01/25 02:08:24;;;;;;;12.35;8.93;;;15.60;45.90;;;;;;5034263;28;20192;-63
2023/01/25 02:10:51;;;;;;;11.93;8.88;;;15.60;45.90;;;;;;5034145;28;20211;-62
2023/01/25 02:13:19;;;;;;;11.65;8.73;;;15.60;45.90;;;;;;5035496;28;20212;-63
2023/01/25 02:15:47;;;;;;;14.25;9.52;;;15.60;45.90;;;;;;5034186;28;20204;-62
2023/01/25 02:18:14;;;;;;;13.77;9.20;;;15.60;45.80;;;;;;5033601;28;20744;-63
2023/01/25 02:20:42;;;;;;;10.90;8.40;;;15.60;45.80;;;;;;5034043;28;20200;-62
2023/01/25 02:23:13;;;;;;;12.52;9.25;;;15.60;46.00;;;;;;5033919;28;20306;-63
2023/01/25 02:25:43;;;;;;;10.50;8.90;;;15.60;45.90;;;;;;5034135;28;20638;-63
2023/01/25 02:28:13;;;;;;;12.20;8.90;;;15.60;46.00;;;;;;5034002;28;20200;-62
2023/01/25 02:30:41;;;;;;;11.70;9.10;;;15.50;46.60;;;;;;5034121;28;20188;-62
2023/01/25 02:33:08;;;;;;;11.32;9.02;;;15.50;46.10;;;;;;5033867;28;20238;-63
2023/01/25 02:35:38;;;;;;;11.35;8.85;;;15.50;46.10;;;;;;5035286;28;20658;-63
2023/01/25 02:38:05;;;;;;;11.07;9.00;;;15.50;46.10;;;;;;5033840;28;20200;-62
2023/01/25 02:40:34;;;;;;;12.23;8.55;;;15.50;46.10;;;;;;5033995;28;20196;-62
2023/01/25 02:43:02;;;;;;;11.38;9.05;;;15.50;46.10;;;;;;5035381;28;20234;-63
2023/01/25 02:45:30;;;;;;;10.88;8.60;;;15.50;46.10;;;;;;5034094;28;20250;-63
2023/01/25 02:47:57;;;;;;;13.00;8.70;;;15.40;46.10;;;;;;5035644;28;20564;-63
2023/01/25 02:50:24;;;;;;;11.02;8.32;;;15.40;46.20;;;;;;5034410;28;20286;-62
2023/01/25 02:52:51;;;;;;;11.02;8.02;;;15.40;46.20;;;;;;5033997;28;20207;-63
2023/01/25 02:55:18;;;;;;;10.32;8.55;;;15.40;46.20;;;;;;5034202;28;20196;-62
2023/01/25 02:57:46;;;;;;;9.98;8.23;;;15.40;46.10;;;;;;5034834;28;20196;-62
2023/01/25 03:00:17;;;;;;;10.57;8.35;;;15.40;46.20;;;;;;5033893;28;20717;-63
2023/01/25 03:02:46;;;;;;;10.70;8.45;;;15.40;46.10;;;;;;5032739;28;20759;-63
2023/01/25 03:05:13;;;;;;;12.50;8.20;;;15.40;46.20;;;;;;5032830;28;20291;-62
2023/01/25 03:07:40;;;;;;;12.98;8.63;;;15.30;46.10;;;;;;5033827;28;20279;-63
2023/01/25 03:10:09;;;;;;;10.32;8.15;;;15.30;46.10;;;;;;5034222;28;20176;-63
2023/01/25 03:12:37;;;;;;;11.13;7.55;;;15.30;46.10;;;;;;5032817;28;20196;-64
2023/01/25 03:15:05;;;;;;;10.05;7.85;;;15.30;46.20;;;;;;5032716;28;20310;-62
2023/01/25 03:17:34;;;;;;;9.60;8.15;;;15.30;46.30;;;;;;5032868;28;20204;-63
2023/01/25 03:20:01;;;;;;;10.48;8.43;;;15.30;46.20;;;;;;5033276;28;20216;-63
2023/01/25 03:22:30;;;;;;;8.90;7.53;;;15.30;46.30;;;;;;5033098;28;20206;-63
2023/01/25 03:24:58;;;;;;;10.40;8.10;;;15.30;46.30;;;;;;5032474;28;20220;-63
2023/01/25 03:27:25;;;;;;;10.55;8.20;;;15.30;46.30;;;;;;5032642;28;20191;-63
2023/01/25 03:30:02;;;;;;;9.57;7.50;;;15.30;46.40;;;;;;5032552;28;20195;-63
2023/01/25 03:32:34;;;;;;;8.98;7.80;;;15.30;46.40;;;;;;5032365;28;20196;-63
2023/01/25 03:35:06;;;;;;;9.93;7.97;;;15.30;46.30;;;;;;5033027;28;20246;-63
2023/01/25 03:37:33;;;;;;;9.30;7.53;;;15.20;46.30;;;;;;5032193;28;20637;-63
2023/01/25 03:40:00;;;;;;;10.82;8.35;;;15.30;46.40;;;;;;5032549;28;20563;-64
2023/01/25 03:42:28;;;;;;;9.27;7.85;;;15.30;46.40;;;;;;5032279;28;20291;-63
2023/01/25 03:44:57;;;;;;;8.38;7.30;;;15.20;46.30;;;;;;5032384;28;20219;-63
2023/01/25 03:47:24;;;;;;;10.10;7.88;;;15.20;46.40;;;;;;5031958;28;20208;-63
2023/01/25 03:49:53;;;;;;;8.68;7.28;;;15.20;46.40;;;;;;5032950;28;20211;-63
2023/01/25 03:52:22;;;;;;;9.23;7.43;;;15.20;46.20;;;;;;5031949;28;20230;-63
2023/01/25 03:54:49;;;;;;;8.63;7.47;;;15.20;46.40;;;;;;5032024;28;20255;-63
2023/01/25 03:57:19;;;;;;;9.00;7.25;;;15.20;46.20;;;;;;5032005;28;20192;-63
2023/01/25 03:59:57;;;;;;;9.55;7.35;;;15.20;46.30;;;;;;5031987;28;20322;-63
2023/01/25 04:02:25;;;;;;;8.07;6.90;;;15.20;46.30;;;;;;5031951;28;20204;-63
2023/01/25 04:04:54;;;;;;;10.15;7.53;;;15.20;46.30;;;;;;5032107;28;20223;-64
2023/01/25 04:07:22;;;;;;;7.88;7.07;;;15.10;46.10;;;;;;5031875;28;20697;-63
2023/01/25 04:09:50;;;;;;;9.15;7.38;;;15.10;46.30;;;;;;5033371;28;20191;-63
2023/01/25 04:12:18;;;;;;;8.73;6.88;;;15.20;46.30;;;;;;5032040;28;20196;-63
2023/01/25 04:14:46;;;;;;;8.43;7.10;;;15.10;46.30;;;;;;5031673;28;20277;-63
2023/01/25 04:17:19;;;;;;;8.07;6.82;;;15.10;46.40;;;;;;5032717;28;20191;-63
2023/01/25 04:19:54;;;;;;;8.02;6.45;;;15.10;46.60;;;;;;5031738;28;20208;-63
2023/01/25 04:22:26;;;;;;;8.63;6.82;;;15.10;46.60;;;;;;5031849;28;20669;-63
2023/01/25 04:24:56;;;;;;;9.02;7.20;;;15.10;46.50;;;;;;5031740;28;20633;-63
2023/01/25 04:27:23;;;;;;;8.07;6.70;;;15.10;46.70;;;;;;5032163;28;20200;-63
2023/01/25 04:30:13;;;;;;;8.10;6.68;;;15.10;46.50;;;;;;5031741;28;20571;-63
2023/01/25 04:32:41;;;;;;;8.57;6.55;;;15.20;46.40;;;;;;5031728;28;20196;-64
2023/01/25 04:35:22;;;;;;;8.52;7.25;;;15.20;46.50;;;;;;5032212;28;20751;-63
2023/01/25 04:37:53;;;;;;;6.82;6.13;;;15.20;46.40;;;;;;5032424;28;20196;-63
2023/01/25 04:40:21;;;;;;;7.68;6.45;;;15.20;46.40;;;;;;5032938;28;20216;-63
2023/01/25 04:42:47;;;;;;;7.57;6.47;;;15.30;46.50;;;;;;5035978;28;20279;-63
2023/01/25 04:45:16;;;;;;;8.40;6.68;;;15.30;46.50;;;;;;5035946;28;20195;-63
2023/01/25 04:47:43;;;;;;;7.70;6.18;;;15.30;46.30;;;;;;5035649;28;20231;-63
2023/01/25 04:50:10;;;;;;;8.25;6.82;;;15.30;46.40;;;;;;5035615;28;20764;-63
2023/01/25 04:52:39;;;;;;;8.15;6.50;;;15.30;46.40;;;;;;5035542;28;20202;-64
2023/01/25 04:55:07;;;;;;;7.78;6.40;;;15.40;46.30;;;;;;5035521;28;20635;-64
2023/01/25 04:57:39;;;;;;;7.72;6.60;;;15.40;46.20;;;;;;5035533;28;20192;-63
2023/01/25 05:00:08;;;;;;;7.10;6.40;;;15.40;46.10;;;;;;5035327;28;20768;-63
2023/01/25 05:02:38;;;;;;;7.05;6.35;;;15.40;46.10;;;;;;5035254;28;20198;-64
2023/01/25 05:05:06;;;;;;;8.05;6.50;;;15.40;46.00;;;;;;5036225;28;20188;-64
2023/01/25 05:07:33;;;;;;;7.78;6.80;;;15.40;46.00;;;;;;5035294;28;20204;-64
2023/01/25 05:10:01;;;;;;;7.43;6.20;;;15.40;45.90;;;;;;5035175;28;20196;-63
2023/01/25 05:12:29;;;;;;;7.68;6.13;;;15.40;45.80;;;;;;5035162;28;20196;-63
2023/01/25 05:15:01;;;;;;;7.28;6.47;;;15.50;45.90;;;;;;5035329;28;20212;-64
2023/01/25 05:17:28;;;;;;;6.88;5.95;;;15.40;45.70;;;;;;5035297;28;20207;-63
2023/01/25 05:19:55;;;;;;;7.63;6.18;;;15.40;45.80;;;;;;5034847;28;20218;-63
2023/01/25 05:22:23;;;;;;;7.57;6.18;;;15.40;45.50;;;;;;5035049;28;20208;-63
2023/01/25 05:24:53;;;;;;;8.43;6.55;;;15.50;45.70;;;;;;5035136;28;20294;-63
2023/01/25 05:27:21;;;;;;;7.10;6.18;;;15.50;45.60;;;;;;5035015;28;20219;-63
2023/01/25 05:29:54;;;;;;;6.85;6.10;;;15.50;45.70;;;;;;5036588;28;20180;-63
2023/01/25 05:32:37;;;;;;;7.05;6.00;;;15.50;45.40;;;;;;5034632;28;20275;-64
2023/01/25 05:35:05;;;;;;;6.75;6.07;;;15.50;45.40;;;;;;5034703;28;20220;-63
2023/01/25 05:37:31;;;;;;;8.02;6.32;;;15.50;45.60;;;;;;5035497;28;20222;-62
2023/01/25 05:40:07;;;;;;;9.10;6.95;;;15.50;45.40;;;;;;5034577;28;20693;-63
2023/01/25 05:42:38;;;;;;;6.80;5.90;;;15.50;45.60;;;;;;5034386;28;20196;-63
2023/01/25 05:45:11;;;;;;;7.53;6.22;;;15.50;45.70;;;;;;5034693;28;20194;-62
2023/01/25 05:47:40;;;;;;;6.43;5.65;;;15.60;45.70;;;;;;5034479;28;20199;-63
2023/01/25 05:50:08;;;;;;;7.68;6.32;;;15.60;46.00;;;;;;5035697;28;20219;-62
2023/01/25 05:52:49;;;;;;;7.95;6.63;;;15.60;46.10;;;;;;5033473;28;20249;-63
2023/01/25 05:55:16;;;;;;;6.65;5.72;;;15.60;46.00;;;;;;5034305;28;20238;-63
2023/01/25 05:57:45;;;;;;;6.53;5.93;;;15.70;46.20;;;;;;5034248;28;20704;-62
2023/01/25 06:00:13;;;;;;;6.63;5.63;;;15.70;46.20;;;;;;5033974;28;20216;-63
2023/01/25 06:02:40;;;;;;;7.53;6.00;;;15.70;46.20;;;;;;5035904;28;20246;-63
2023/01/25 06:05:10;;;;;;;7.18;5.93;;;15.70;46.20;;;;;;5034277;28;20629;-64
2023/01/25 06:07:37;;;;;;;6.25;5.65;;;15.70;46.30;;;;;;5034045;28;20200;-62
2023/01/25 06:10:06;;;;;;;7.45;6.00;;;15.80;46.10;;;;;;5033911;28;20192;-62
2023/01/25 06:12:33;;;;;;;6.32;5.68;;;15.80;46.20;;;;;;5034046;28;20265;-62
2023/01/25 06:15:02;;;;;;;6.60;5.18;;;15.80;47.00;;;;;;5033971;28;20708;-63
2023/01/25 06:17:29;;;;;;;6.10;5.28;;;15.80;45.80;;;;;;5034120;28;20202;-63
2023/01/25 06:20:04;;;;;;;6.45;5.68;;;15.80;45.60;;;;;;5034727;28;20274;-62
2023/01/25 06:22:38;;;;;;;5.78;5.25;;;15.80;45.60;;;;;;5033785;28;20195;-63
2023/01/25 06:25:06;;;;;;;6.05;5.45;;;15.90;45.60;;;;;;5033799;28;20204;-63
2023/01/25 06:27:33;;;;;;;6.78;6.07;;;15.80;45.60;;;;;;5035390;28;20294;-63
2023/01/25 06:30:02;;;;;;;7.38;6.18;;;15.80;45.40;;;;;;5035132;28;20222;-62
2023/01/25 06:32:32;;;;;;;6.75;6.03;;;15.80;45.40;;;;;;5033589;28;20198;-62
2023/01/25 06:34:59;;;;;;;7.47;6.30;;;15.80;45.40;;;;;;5033489;28;20307;-63
2023/01/25 06:37:26;;;;;;;6.85;5.90;;;15.80;45.40;;;;;;5033540;28;20258;-62
2023/01/25 06:39:54;;;;;;;6.55;5.68;;;15.80;45.50;;;;;;5033348;28;20230;-62
2023/01/25 06:42:21;;;;;;;6.78;5.80;;;15.80;45.50;;;;;;5034905;28;20188;-63
2023/01/25 06:44:48;;;;;;;6.32;5.72;;;15.80;45.20;;;;;;5034758;28;20219;-62
2023/01/25 06:47:17;;;;;;;6.72;6.03;;;15.90;45.20;;;;;;5034640;28;20192;-63
2023/01/25 06:49:43;;;;;;;7.28;5.70;;;15.90;45.10;;;;;;5034720;28;20594;-63
2023/01/25 06:52:10;;;;;;;7.35;6.13;;;15.90;45.00;;;;;;5034540;28;20192;-63
2023/01/25 06:54:38;;;;;;;6.40;5.80;;;15.90;45.00;;;;;;5034347;28;20224;-62
2023/01/25 06:57:05;;;;;;;6.22;5.25;;;16.00;44.80;;;;;;5034383;28;20196;-63
2023/01/25 06:59:32;;;;;;;7.43;5.88;;;15.90;44.70;;;;;;5033065;28;20662;-62
2023/01/25 07:01:59;;;;;;;6.28;5.30;;;15.90;44.70;;;;;;5033110;28;20216;-62
2023/01/25 07:04:28;;;;;;;6.53;5.43;;;15.90;44.70;;;;;;5034264;28;20728;-63
2023/01/25 07:06:55;;;;;;;7.07;5.70;;;15.90;44.70;;;;;;5032921;28;20208;-62
2023/01/25 07:09:23;;;;;;;6.43;5.72;;;15.90;44.70;;;;;;5032857;28;20207;-63
2023/01/25 07:11:51;;;;;;;6.28;5.65;;;15.90;44.60;;;;;;5034261;28;20267;-63
2023/01/25 07:14:18;;;;;;;6.55;5.53;;;15.90;44.70;;;;;;5032614;28;20220;-63
2023/01/25 07:16:45;;;;;;;6.13;5.53;;;15.90;44.70;;;;;;5034390;28;20188;-63
2023/01/25 07:19:13;;;;;;;6.30;5.03;;;15.90;44.70;;;;;;5034475;28;20196;-62
2023/01/25 07:21:41;;;;;;;5.93;5.22;;;15.90;44.80;;;;;;5034047;28;20215;-63
2023/01/25 07:24:10;;;;;;;6.15;5.20;;;16.00;44.70;;;;;;5032636;28;20217;-63
2023/01/25 07:26:38;;;;;;;6.60;5.88;;;15.90;44.70;;;;;;5033797;28;20220;-63
2023/01/25 07:29:05;;;;;;;6.05;5.45;;;15.90;44.50;;;;;;5033895;28;20224;-62
2023/01/25 07:31:32;;;;;;;5.93;5.32;;;15.90;44.50;;;;;;5033834;28;20196;-63
2023/01/25 07:33:59;;;;;;;5.70;5.05;;;16.00;44.60;;;;;;5033912;28;20216;-63
2023/01/25 07:36:26;;;;;;;6.78;5.80;;;16.00;44.50;;;;;;5033747;28;20270;-63
2023/01/25 07:38:57;;;;;;;6.85;5.43;;;16.00;44.40;;;;;;5032379;28;20210;-63
2023/01/25 07:41:25;;;;;;;6.93;5.82;;;16.00;44.50;;;;;;5032265;28;20243;-62
2023/01/25 07:43:52;;;;;;;6.57;5.50;;;16.00;44.30;;;;;;5032319;28;20223;-63
2023/01/25 07:46:33;;;;;;;6.90;6.20;;;16.00;44.30;;;;;;5032826;28;20195;-63
2023/01/25 07:49:01;;;;;;;6.78;5.78;;;16.00;44.10;;;;;;5032157;28;20202;-62
2023/01/25 07:51:29;;;;;;;6.38;5.05;;;16.10;44.30;;;;;;5033792;28;20184;-63
2023/01/25 07:53:59;;;;;;;6.30;5.47;;;16.10;44.30;;;;;;5033677;28;20298;-63
2023/01/25 07:56:26;;;;;;;5.90;5.20;;;16.10;44.20;;;;;;5033061;28;20196;-62
2023/01/25 07:58:55;;;;;;;5.97;5.38;;;16.00;44.20;;;;;;5033360;28;20204;-63
2023/01/25 08:01:23;;;;;;;6.40;5.30;;;16.10;44.20;;;;;;5033023;28;20212;-62
2023/01/25 08:03:51;;;;;;;6.22;5.50;;;16.10;44.00;;;;;;5032594;28;20216;-63
2023/01/25 08:06:19;;;;;;;5.88;5.38;;;16.00;43.90;;;;;;5031951;28;20232;-62
2023/01/25 08:08:48;;;;;;;6.10;5.50;;;16.10;44.00;;;;;;5031945;28;20203;-62
2023/01/25 08:11:17;;;;;;;5.55;4.97;;;16.10;44.00;;;;;;5033372;28;20199;-63
2023/01/25 08:13:45;;;;;;;5.68;5.07;;;16.10;43.90;;;;;;5033376;28;20283;-63
2023/01/25 08:16:12;;;;;;;6.22;5.57;;;16.10;44.10;;;;;;5033005;28;20199;-63
2023/01/25 08:18:39;;;;;;;5.70;5.10;;;16.20;44.00;;;;;;5033326;28;20267;-63
2023/01/25 08:21:06;;;;;;;5.93;5.32;;;16.20;43.90;;;;;;5033207;28;20204;-63
2023/01/25 08:23:33;;;;;;;6.15;5.40;;;16.20;43.90;;;;;;5033027;28;20214;-63
2023/01/25 08:26:05;;;;;;;5.65;5.07;;;16.20;43.80;;;;;;5032994;28;20270;-63
2023/01/25 08:28:34;;;;;;;5.88;5.28;;;16.20;43.90;;;;;;5031843;28;20204;-63
2023/01/25 08:31:06;;;;;;;5.95;5.10;;;16.20;43.60;;;;;;5031682;28;20203;-63
2023/01/25 08:33:33;;;;;;;5.85;5.25;;;16.20;43.70;;;;;;5032896;28;20638;-63
2023/01/25 08:36:00;;;;;;;5.95;5.35;;;16.20;43.60;;;;;;5031738;28;20695;-63
2023/01/25 08:38:27;;;;;;;6.75;5.50;;;16.20;43.70;;;;;;5033255;28;20194;-63
2023/01/25 08:40:54;;;;;;;6.13;5.40;;;16.20;43.70;;;;;;5032875;28;20208;-63
2023/01/25 08:43:21;;;;;;;6.15;5.55;;;16.20;43.60;;;;;;5031820;28;20215;-63
2023/01/25 08:45:57;;;;;;;5.97;5.35;;;16.20;43.40;;;;;;5031574;28;20258;-63
2023/01/25 08:48:24;;;;;;;6.10;5.50;;;16.20;43.60;;;;;;5031713;28;20653;-63
2023/01/25 08:50:51;;;;;;;6.22;5.60;;;16.20;43.60;;;;;;5032912;28;20188;-63
2023/01/25 08:53:18;;;;;;;6.03;5.25;;;16.20;43.50;;;;;;5032950;28;20204;-63
2023/01/25 08:55:45;;;;;;;6.93;5.03;;;16.20;43.60;;;;;;5033073;28;20188;-63
2023/01/25 08:58:12;;;;;;;6.15;5.53;;;16.20;43.40;;;;;;5032872;28;20193;-62
2023/01/25 09:00:41;;;;;;;6.38;5.78;;;16.20;43.60;;;;;;5032685;28;20260;-63
2023/01/25 09:03:10;;;;;;;6.45;5.68;;;16.20;43.60;;;;;;5031368;28;20219;-63
2023/01/25 09:05:38;;;;;;;5.93;5.20;;;16.20;43.50;;;;;;5031382;28;20331;-63
2023/01/25 09:08:06;;;;;;;6.07;5.30;;;16.20;43.40;;;;;;5032478;28;20200;-62
2023/01/25 09:10:34;;;;;;;6.30;5.20;;;16.20;43.20;;;;;;5031299;28;20203;-63
2023/01/25 09:13:01;;;;;;;7.22;5.93;;;16.20;43.30;;;;;;5032614;28;20588;-63
2023/01/25 09:15:28;;;;;;;5.88;5.28;;;16.20;43.40;;;;;;5031322;28;20226;-63
2023/01/25 09:17:55;;;;;;;6.63;5.88;;;16.30;43.50;;;;;;5032609;28;20180;-63
2023/01/25 09:20:24;;;;;;;6.80;5.65;;;16.20;43.30;;;;;;5031149;28;20212;-63
2023/01/25 09:22:51;;;;;;;6.63;5.90;;;16.20;43.60;;;;;;5031260;28;20226;-63
2023/01/25 09:25:18;;;;;;;5.60;5.10;;;16.20;43.40;;;;;;5032519;28;20196;-63
2023/01/25 09:27:45;;;;;;;6.20;5.60;;;16.30;43.60;;;;;;5032080;28;20203;-63
2023/01/25 09:30:12;;;;;;;6.78;5.43;;;16.30;43.30;;;;;;5034882;28;20283;-63
2023/01/25 09:32:40;;;;;;;6.30;5.65;;;16.30;43.30;;;;;;5034667;28;20196;-63
2023/01/25 09:35:07;;;;;;;6.10;5.45;;;16.30;43.30;;;;;;5036260;28;20196;-63
2023/01/25 09:37:35;;;;;;;6.22;5.60;;;16.40;43.10;;;;;;5034779;28;20196;-63
2023/01/25 09:40:03;;;;;;;5.72;5.18;;;16.40;42.90;;;;;;5034651;28;20210;-63
2023/01/25 09:42:40;;;;;;;5.75;5.25;;;16.40;43.00;;;;;;5036103;28;20192;-63
2023/01/25 09:45:15;;;;;;;5.93;5.38;;;16.40;43.00;;;;;;5035986;28;20176;-63
2023/01/25 09:47:45;;;;;;;6.05;5.45;;;16.40;42.90;;;;;;5034884;28;20281;-63
2023/01/25 09:50:23;;;;;;;6.55;5.68;;;16.50;43.00;;;;;;5034748;28;20582;-63
2023/01/25 09:53:14;;;;;;;6.32;5.72;;;16.40;42.80;;;;;;5034222;28;20669;-63
2023/01/25 09:55:41;;;;;;;5.53;5.00;;;16.40;42.90;;;;;;5023377;28;20624;-63
2023/01/25 09:58:12;;;;;;;6.20;5.60;;;16.50;43.00;;;;;;5035638;28;20188;-63
2023/01/25 10:00:43;;;;;;;6.15;5.53;;;16.40;42.90;;;;;;5035654;28;20203;-63
2023/01/25 10:03:13;;;;;;;5.72;5.22;;;16.50;42.90;;;;;;5035401;28;20220;-63
2023/01/25 10:05:42;;;;;;;6.45;5.22;;;16.40;42.90;;;;;;5034174;28;20204;-63
2023/01/25 10:08:14;;;;;;;6.22;5.63;;;16.40;42.90;;;;;;5035194;28;20188;-63
2023/01/25 10:10:42;;;;;;;5.65;5.10;;;16.50;43.00;;;;;;5034175;28;20276;-63
2023/01/25 10:13:10;;;;;;;6.57;5.90;;;16.50;43.00;;;;;;5035212;28;20208;-63
2023/01/25 10:15:38;;;;;;;6.13;5.50;;;16.50;43.00;;;;;;5035241;28;20192;-63
2023/01/25 10:18:08;;;;;;;6.65;5.75;;;16.40;42.90;;;;;;5035554;28;20204;-63
2023/01/25 10:20:40;;;;;;;6.03;5.43;;;16.50;43.00;;;;;;5034427;28;20193;-63
2023/01/25 10:23:25;;;;;;;6.20;5.60;;;16.50;43.00;;;;;;5035158;28;20576;-63
2023/01/25 10:25:54;;;;;;;6.78;5.53;;;16.50;43.00;;;;;;5033840;28;20187;-63
2023/01/25 10:28:28;;;;;;;6.35;5.75;;;16.50;43.00;;;;;;5035320;28;20195;-63
2023/01/25 10:30:56;;;;;;;6.28;5.68;;;16.60;43.10;;;;;;5033725;28;20203;-63
2023/01/25 10:33:23;;;;;;;5.80;5.20;;;16.60;42.70;;;;;;5035097;28;20563;-63
2023/01/25 10:35:51;;;;;;;5.60;5.10;;;16.60;42.80;;;;;;5035125;28;20188;-63
2023/01/25 10:38:21;;;;;;;5.78;5.18;;;16.50;42.70;;;;;;5033336;28;20563;-63
2023/01/25 10:40:50;;;;;;;6.78;5.45;;;16.50;43.00;;;;;;5035115;28;20569;-63
2023/01/25 10:43:19;;;;;;;6.03;5.47;;;16.50;43.00;;;;;;5033602;28;20224;-63
2023/01/25 10:45:46;;;;;;;6.78;5.57;;;16.50;42.90;;;;;;5034892;28;20188;-63
2023/01/25 10:48:17;;;;;;;6.20;5.57;;;16.40;42.90;;;;;;5034981;28;20216;-63
2023/01/25 10:50:46;;;;;;;6.35;5.75;;;16.40;42.90;;;;;;5034995;28;20176;-63
2023/01/25 10:53:29;;;;;;;5.88;5.28;;;16.40;42.90;;;;;;5034821;28;20272;-63
2023/01/25 10:56:01;;;;;;;6.25;5.57;;;16.50;43.00;;;;;;5035001;28;20224;-63
2023/01/25 10:58:30;;;;;;;6.38;5.75;;;16.40;43.00;;;;;;5033702;28;20613;-64
2023/01/25 11:00:57;;;;;;;5.85;5.25;;;16.50;43.00;;;;;;5034832;28;20220;-63
2023/01/25 11:03:33;;;;;;;6.45;5.80;;;16.50;43.00;;;;;;5034976;28;20216;-63
2023/01/25 11:06:00;;;;;;;6.50;5.45;;;16.40;42.90;;;;;;5033532;28;20202;-63
2023/01/25 11:08:33;;;;;;;6.05;5.45;;;16.50;42.90;;;;;;5034809;28;20169;-63
2023/01/25 11:11:00;;;;;;;6.35;5.75;;;16.50;42.90;;;;;;5035189;28;20191;-63
2023/01/25 11:13:28;;;;;;;5.82;5.22;;;16.50;42.80;;;;;;5040688;28;20204;-66
2023/01/25 11:16:14;;;;;;;6.65;5.60;;;16.60;42.70;;;;;;5048856;28;20196;-64
2023/01/25 11:18:50;;;;;;;6.43;5.78;;;16.60;42.80;;;;;;5035379;28;20183;-63
2023/01/25 11:21:20;;;;;;;5.93;5.32;;;16.60;42.60;;;;;;5035040;28;20596;-63
2023/01/25 11:24:00;;;;;;;5.95;5.28;;;16.60;42.70;;;;;;5035215;28;20574;-63
2023/01/25 11:26:27;;;;;;;6.22;5.50;;;16.60;42.40;;;;;;5034568;28;20199;-63
2023/01/25 11:29:07;;;;;;;6.45;5.85;;;16.60;42.60;;;;;;5034415;28;20199;-63
2023/01/25 11:31:34;;;;;;;7.55;6.07;;;16.70;42.30;;;;;;5033098;28;20604;-63
2023/01/25 11:34:01;;;;;;;6.35;5.75;;;16.80;42.40;;;;;;5032794;28;20266;-65
2023/01/25 11:36:33;;;;;;;6.65;5.95;;;16.80;41.90;;;;;;5034033;28;20261;-64
2023/01/25 11:39:21;;;;;;;6.38;5.75;;;16.80;42.80;;;;;;5034217;28;20493;-63
2023/01/25 11:41:59;;;;;;;5.57;5.07;;;16.70;42.10;;;;;;5032495;28;20682;-63
2023/01/25 11:44:47;;;;;;;6.75;6.05;;;16.70;42.60;;;;;;5033829;28;20204;-63
2023/01/25 11:47:22;;;;;;;6.28;5.65;;;16.70;42.50;;;;;;5031768;28;20204;-63
2023/01/25 11:49:54;;;;;;;6.28;5.60;;;16.80;42.10;;;;;;5032048;28;20279;-64
2023/01/25 11:52:25;;;;;;;6.60;6.00;;;16.70;42.20;;;;;;5033844;28;20181;-63
2023/01/25 11:54:58;;;;;;;6.35;5.75;;;16.80;42.10;;;;;;5033816;28;20243;-63
2023/01/25 11:57:34;;;;;;;6.18;5.57;;;16.80;41.90;;;;;;5033693;28;20173;-63
2023/01/25 12:00:08;;;;;;;6.47;5.88;;;16.80;41.90;;;;;;5033702;28;20215;-63
2023/01/25 12:02:55;;;;;;;6.38;5.78;;;16.90;41.90;;;;;;5033458;28;20290;-63
2023/01/25 12:05:28;;;;;;;6.45;5.75;;;16.80;41.90;;;;;;5032264;28;20214;-63
2023/01/25 12:08:01;;;;;;;6.43;5.82;;;16.80;42.00;;;;;;5127014;22;20235;-63
2023/01/25 12:10:35;;;;;;;6.90;6.18;;;16.90;42.00;;;;;;5053433;28;20226;-63
2023/01/25 12:13:05;;;;;;;6.57;5.82;;;16.90;41.80;;;;;;5053195;28;20223;-63
2023/01/25 12:15:58;;;;;;;8.35;6.55;;;16.90;41.70;;;;;;5053298;28;20191;-63
2023/01/25 12:18:45;;;;;;;6.28;5.68;;;16.90;41.70;;;;;;5053459;28;20556;-66
2023/01/25 12:21:22;;;;;;;7.63;5.88;;;16.90;41.90;;;;;;5053062;28;20182;-63
2023/01/25 12:23:57;;;;;;;6.63;5.93;;;16.80;41.90;;;;;;5051537;28;20221;-63
2023/01/25 12:26:27;;;;;;;6.78;6.10;;;16.80;42.00;;;;;;5052807;28;20183;-63
2023/01/25 12:28:59;;;;;;;6.32;5.72;;;16.90;42.00;;;;;;5051621;28;20226;-63
2023/01/25 12:31:28;;;;;;;6.68;6.07;;;16.90;42.00;;;;;;5051729;28;20176;-62
2023/01/25 12:33:57;;;;;;;6.50;5.85;;;16.90;41.80;;;;;;5052845;28;20215;-62
2023/01/25 12:36:27;;;;;;;8.10;6.22;;;16.90;41.70;;;;;;5053037;28;20195;-62
2023/01/25 12:38:56;;;;;;;7.10;6.40;;;16.80;41.90;;;;;;5051615;28;20195;-62
2023/01/25 12:41:31;;;;;;;6.70;5.95;;;16.80;41.90;;;;;;5051431;28;20207;-63
2023/01/25 12:44:01;;;;;;;6.40;5.80;;;16.80;42.00;;;;;;5052990;28;20207;-63
2023/01/25 12:46:29;;;;;;;7.20;6.50;;;16.80;42.10;;;;;;5053341;28;20191;-62
2023/01/25 12:48:59;;;;;;;7.18;6.45;;;16.80;41.90;;;;;;5053090;28;20197;-63
2023/01/25 12:51:29;;;;;;;7.20;6.07;;;16.90;41.90;;;;;;5053224;28;20191;-63
2023/01/25 12:53:57;;;;;;;6.15;5.55;;;16.90;41.90;;;;;;5053264;28;20238;-62
2023/01/25 12:56:32;;;;;;;6.57;5.90;;;16.90;41.90;;;;;;5053382;28;20199;-63
2023/01/25 12:59:02;;;;;;;9.20;6.10;;;16.90;41.90;;;;;;5053704;28;20274;-63
2023/01/25 13:01:33;;;;;;;7.00;6.30;;;16.80;41.70;;;;;;5054644;28;20203;-63
2023/01/25 13:04:08;;;;;;;6.85;5.88;;;16.80;41.90;;;;;;5055593;28;20234;-62
2023/01/25 13:06:39;;;;;;;6.65;5.95;;;16.80;42.10;;;;;;5056901;28;20246;-63
2023/01/25 13:09:10;;;;;;;6.35;5.75;;;16.70;42.00;;;;;;5057285;28;20266;-62
2023/01/25 13:11:39;;;;;;;6.93;6.25;;;16.70;42.10;;;;;;5056116;28;20183;-62
2023/01/25 13:14:23;;;;;;;6.38;5.78;;;16.70;42.10;;;;;;5056774;28;20218;-62